createdAt,value
2019-03-21T00:00:38.502Z,102.60
2019-03-21T00:03:05.129Z,102.10
2019-03-21T00:05:33.000Z,102.10
2019-03-21T00:07:59.643Z,96.03
2019-03-21T00:10:30.041Z,100.60
2019-03-21T00:12:56.572Z,106.27
2019-03-21T00:15:29.781Z,102.40
2019-03-21T00:17:59.533Z,106.40
2019-03-21T00:20:26.078Z,106.10
2019-03-21T00:22:52.654Z,113.63
2019-03-21T00:25:21.792Z,109.23
2019-03-21T00:27:50.385Z,104.60
2019-03-21T00:30:20.106Z,107.67
2019-03-21T00:32:46.749Z,102.60
2019-03-21T00:35:14.958Z,97.80
2019-03-21T00:37:41.625Z,100.37
2019-03-21T00:40:23.552Z,105.33
2019-03-21T00:42:50.088Z,103.57
2019-03-21T00:45:16.657Z,103.73
2019-03-21T00:47:44.796Z,98.67
2019-03-21T00:50:14.472Z,101.07
2019-03-21T00:52:41.305Z,103.33
2019-03-21T00:55:10.899Z,98.80
2019-03-21T00:57:37.644Z,108.33
2019-03-21T01:00:08.124Z,102.53
2019-03-21T01:02:36.364Z,107.63
2019-03-21T01:05:06.742Z,108.37
2019-03-21T01:07:33.534Z,103.83
2019-03-21T01:10:00.106Z,106.97
2019-03-21T01:12:26.643Z,107.30
2019-03-21T01:14:53.211Z,109.13
2019-03-21T01:17:19.851Z,109.90
2019-03-21T01:19:46.431Z,109.60
2019-03-21T01:22:13.171Z,107.30
2019-03-21T01:24:39.814Z,107.20
2019-03-21T01:27:06.575Z,110.60
2019-03-21T01:29:33.232Z,109.13
2019-03-21T01:31:59.809Z,107.67
2019-03-21T01:34:26.485Z,106.20
2019-03-21T01:36:53.151Z,105.37
2019-03-21T01:39:19.824Z,106.90
2019-03-21T01:41:46.540Z,102.80
2019-03-21T01:44:14.026Z,109.00
2019-03-21T01:46:40.568Z,105.30
2019-03-21T01:49:07.641Z,109.37
2019-03-21T01:51:34.296Z,99.87
2019-03-21T01:54:00.968Z,99.83
2019-03-21T01:56:29.122Z,102.17
2019-03-21T01:58:55.792Z,95.80
2019-03-21T02:01:22.334Z,98.97
2019-03-21T02:03:50.612Z,102.87
2019-03-21T02:06:17.251Z,100.20
2019-03-21T02:08:43.688Z,99.03
2019-03-21T02:11:10.292Z,97.07
2019-03-21T02:13:36.933Z,89.80
2019-03-21T02:16:03.741Z,86.67
2019-03-21T02:18:30.278Z,94.07
2019-03-21T02:20:56.852Z,95.47
2019-03-21T02:23:24.104Z,94.03
2019-03-21T02:25:51.660Z,97.90
2019-03-21T02:28:18.299Z,95.73
2019-03-21T02:30:49.693Z,96.97
2019-03-21T02:33:23.337Z,101.20
2019-03-21T02:35:49.989Z,99.03
2019-03-21T02:38:16.520Z,96.53
2019-03-21T02:40:43.798Z,100.90
2019-03-21T02:43:10.347Z,94.47
2019-03-21T02:45:36.824Z,105.10
2019-03-21T02:48:03.369Z,98.60
2019-03-21T02:50:35.937Z,103.70
2019-03-21T02:53:04.501Z,109.27
2019-03-21T02:55:31.217Z,102.60
2019-03-21T02:57:57.826Z,105.37
2019-03-21T03:00:36.739Z,100.60
2019-03-21T03:03:06.008Z,97.87
2019-03-21T03:05:33.994Z,103.40
2019-03-21T03:08:00.598Z,105.60
2019-03-21T03:10:47.901Z,96.20
2019-03-21T03:13:14.445Z,97.97
2019-03-21T03:15:41.966Z,101.77
2019-03-21T03:18:18.283Z,98.13
2019-03-21T03:20:44.966Z,98.40
2019-03-21T03:23:11.708Z,95.93
2019-03-21T03:25:39.276Z,93.53
2019-03-21T03:28:09.938Z,97.80
2019-03-21T03:30:37.226Z,98.03
2019-03-21T03:33:03.917Z,99.00
2019-03-21T03:35:30.553Z,100.93
2019-03-21T03:37:57.212Z,102.00
2019-03-21T03:40:39.777Z,97.93
2019-03-21T03:43:06.550Z,95.47
2019-03-21T03:45:38.693Z,98.10
2019-03-21T03:48:05.675Z,97.23
2019-03-21T03:50:33.222Z,97.10
2019-03-21T03:53:01.606Z,106.97
2019-03-21T03:55:28.545Z,103.00
2019-03-21T03:58:01.846Z,103.80
2019-03-21T04:00:28.377Z,98.30
2019-03-21T04:02:55.467Z,99.67
2019-03-21T04:05:23.205Z,97.00
2019-03-21T04:07:51.783Z,94.23
2019-03-21T04:10:45.568Z,93.97
2019-03-21T04:13:12.930Z,98.93
2019-03-21T04:15:51.597Z,96.97
2019-03-21T04:18:07.846Z,99.47
2019-03-21T04:20:44.277Z,106.80
2019-03-21T04:23:12.042Z,98.67
2019-03-21T04:25:48.204Z,104.17
2019-03-21T04:28:15.770Z,99.17
2019-03-21T04:30:44.210Z,100.90
2019-03-21T04:33:11.389Z,104.60
2019-03-21T04:35:37.934Z,111.27
2019-03-21T04:38:04.514Z,121.40
2019-03-21T04:40:31.150Z,113.00
2019-03-21T04:42:57.861Z,116.30
2019-03-21T04:45:25.412Z,111.63
2019-03-21T04:47:52.221Z,116.20
2019-03-21T04:50:27.811Z,113.30
2019-03-21T04:52:54.433Z,113.17
2019-03-21T04:55:20.969Z,121.60
2019-03-21T04:57:48.070Z,114.73
2019-03-21T05:00:21.527Z,121.07
2019-03-21T05:02:49.313Z,116.97
2019-03-21T05:05:16.013Z,117.17
2019-03-21T05:07:42.589Z,113.70
2019-03-21T05:10:12.341Z,102.23
2019-03-21T05:12:39.266Z,105.07
2019-03-21T05:15:18.111Z,98.47
2019-03-21T05:17:45.689Z,105.13
2019-03-21T05:20:18.571Z,102.40
2019-03-21T05:22:45.149Z,102.13
2019-03-21T05:25:11.798Z,100.40
2019-03-21T05:27:40.080Z,92.80
2019-03-21T05:30:13.591Z,98.40
2019-03-21T05:32:41.974Z,93.33
2019-03-21T05:35:08.856Z,92.17
2019-03-21T05:37:35.385Z,102.57
2019-03-21T05:40:05.135Z,90.87
2019-03-21T05:42:31.716Z,93.03
2019-03-21T05:44:58.263Z,90.23
2019-03-21T05:47:24.799Z,88.00
2019-03-21T05:49:51.377Z,87.03
2019-03-21T05:52:17.921Z,84.20
2019-03-21T05:54:44.509Z,80.23
2019-03-21T05:57:11.149Z,84.87
2019-03-21T05:59:37.755Z,85.07
2019-03-21T06:02:04.393Z,75.30
2019-03-21T06:04:30.997Z,83.37
2019-03-21T06:07:04.228Z,79.43
2019-03-21T06:09:30.810Z,81.23
2019-03-21T06:12:00.953Z,78.57
2019-03-21T06:14:48.177Z,78.00
2019-03-21T06:17:15.912Z,77.30
2019-03-21T06:19:52.312Z,73.10
2019-03-21T06:22:28.552Z,74.07
2019-03-21T06:24:58.918Z,75.63
2019-03-21T06:27:29.489Z,76.43
2019-03-21T06:29:56.471Z,75.10
2019-03-21T06:32:26.103Z,71.50
2019-03-21T06:34:53.464Z,78.20
2019-03-21T06:37:20.204Z,69.20
2019-03-21T06:39:46.769Z,70.20
2019-03-21T06:42:13.404Z,68.90
2019-03-21T06:44:39.977Z,74.23
2019-03-21T06:47:06.526Z,70.00
2019-03-21T06:49:33.194Z,68.93
2019-03-21T06:51:59.922Z,66.30
2019-03-21T06:54:28.199Z,69.90
2019-03-21T06:56:54.838Z,66.47
2019-03-21T06:59:21.525Z,62.60
2019-03-21T07:01:48.181Z,68.37
2019-03-21T07:04:14.832Z,59.60
2019-03-21T07:06:41.416Z,62.20
2019-03-21T07:09:07.936Z,60.20
2019-03-21T07:11:34.508Z,59.90
2019-03-21T07:14:01.055Z,56.70
2019-03-21T07:16:27.660Z,56.67
2019-03-21T07:18:54.183Z,58.20
2019-03-21T07:21:20.842Z,52.47
2019-03-21T07:23:47.382Z,51.00
2019-03-21T07:26:13.958Z,50.00
2019-03-21T07:28:40.595Z,47.23
2019-03-21T07:31:07.290Z,48.70
2019-03-21T07:33:33.801Z,50.27
2019-03-21T07:36:00.378Z,50.50
2019-03-21T07:38:26.829Z,49.10
2019-03-21T07:40:53.498Z,51.17
2019-03-21T07:43:22.204Z,52.43
2019-03-21T07:45:48.654Z,51.27
2019-03-21T07:48:15.248Z,48.80
2019-03-21T07:50:41.905Z,49.90
2019-03-21T07:53:08.547Z,52.90
2019-03-21T07:55:35.113Z,47.07
2019-03-21T07:58:01.689Z,49.40
2019-03-21T08:00:28.327Z,44.73
2019-03-21T08:02:54.997Z,49.77
2019-03-21T08:05:21.445Z,52.73
2019-03-21T08:07:48.126Z,61.90
2019-03-21T08:10:14.774Z,56.40
2019-03-21T08:12:41.453Z,49.80
2019-03-21T08:15:12.812Z,50.33
2019-03-21T08:17:39.408Z,53.33
2019-03-21T08:20:09.556Z,59.37
2019-03-21T08:22:36.142Z,58.37
2019-03-21T08:25:05.494Z,61.97
2019-03-21T08:27:32.082Z,57.33
2019-03-21T08:29:58.629Z,62.30
2019-03-21T08:32:25.203Z,57.17
2019-03-21T08:34:51.853Z,53.10
2019-03-21T08:37:18.432Z,56.37
2019-03-21T08:39:45.065Z,55.50
2019-03-21T08:42:11.736Z,49.07
2019-03-21T08:44:38.374Z,49.67
2019-03-21T08:47:05.048Z,48.73
2019-03-21T08:49:31.585Z,46.70
2019-03-21T08:51:58.167Z,46.90
2019-03-21T08:54:24.904Z,47.17
2019-03-21T08:56:51.581Z,44.57
2019-03-21T08:59:19.652Z,49.00
2019-03-21T09:01:46.230Z,46.30
2019-03-21T09:04:12.802Z,48.40
2019-03-21T09:06:39.478Z,55.87
2019-03-21T09:09:07.211Z,48.87
2019-03-21T09:11:33.951Z,46.90
2019-03-21T09:14:00.736Z,49.00
2019-03-21T09:16:28.955Z,52.67
2019-03-21T09:18:56.432Z,47.30
2019-03-21T09:21:23.071Z,47.80
2019-03-21T09:23:49.747Z,48.47
2019-03-21T09:26:16.501Z,46.93
2019-03-21T09:28:44.093Z,49.60
2019-03-21T09:31:11.231Z,54.83
2019-03-21T09:33:37.903Z,49.97
2019-03-21T09:36:05.147Z,49.63
2019-03-21T09:38:31.899Z,51.93
2019-03-21T09:40:58.558Z,49.90
2019-03-21T09:43:25.223Z,47.10
2019-03-21T09:45:51.869Z,47.33
2019-03-21T09:48:18.434Z,47.13
2019-03-21T09:50:44.979Z,46.30
2019-03-21T09:53:11.546Z,41.67
2019-03-21T09:55:38.082Z,46.37
2019-03-21T09:58:04.689Z,47.90
2019-03-21T10:00:33.023Z,46.40
2019-03-21T10:02:59.606Z,47.57
2019-03-21T10:05:26.657Z,48.20
2019-03-21T10:07:53.248Z,49.23
2019-03-21T10:10:30.452Z,47.07
2019-03-21T10:12:57.142Z,45.97
2019-03-21T10:15:23.682Z,46.53
2019-03-21T10:17:50.217Z,48.73
2019-03-21T10:20:16.790Z,47.17
2019-03-21T10:22:43.431Z,51.87
2019-03-21T10:25:10.107Z,47.30
2019-03-21T10:27:36.655Z,46.53
2019-03-21T10:30:08.152Z,46.17
2019-03-21T10:32:34.696Z,45.57
2019-03-21T10:35:01.384Z,45.43
2019-03-21T10:37:27.905Z,47.37
2019-03-21T10:39:54.473Z,45.43
2019-03-21T10:42:21.018Z,46.67
2019-03-21T10:44:47.593Z,43.03
2019-03-21T10:47:14.221Z,51.10
2019-03-21T10:49:40.904Z,49.90
2019-03-21T10:52:07.440Z,46.50
2019-03-21T10:54:34.023Z,50.60
2019-03-21T10:57:00.569Z,53.10
2019-03-21T10:59:27.272Z,54.73
2019-03-21T11:01:53.919Z,54.03
2019-03-21T11:04:20.597Z,52.27
2019-03-21T11:06:47.133Z,52.67
2019-03-21T11:09:13.701Z,50.33
2019-03-21T11:11:40.134Z,50.70
2019-03-21T11:14:06.707Z,49.30
2019-03-21T11:16:33.242Z,49.57
2019-03-21T11:18:59.830Z,54.40
2019-03-21T11:21:26.354Z,49.27
2019-03-21T11:23:52.884Z,45.50
2019-03-21T11:26:19.465Z,49.87
2019-03-21T11:28:46.028Z,51.10
2019-03-21T11:31:12.611Z,47.47
2019-03-21T11:33:39.137Z,49.67
2019-03-21T11:36:05.692Z,51.20
2019-03-21T11:38:32.219Z,48.47
2019-03-21T11:40:58.795Z,48.67
2019-03-21T11:43:25.355Z,48.07
2019-03-21T11:45:55.216Z,46.73
2019-03-21T11:48:21.560Z,43.80
2019-03-21T11:50:48.140Z,41.60
2019-03-21T11:53:14.673Z,35.57
2019-03-21T11:55:41.362Z,41.23
2019-03-21T11:58:07.909Z,40.93
2019-03-21T12:00:42.988Z,40.17
2019-03-21T12:03:04.352Z,39.97
2019-03-21T12:05:31.376Z,36.80
2019-03-21T12:07:58.024Z,37.90
2019-03-21T12:10:24.702Z,35.33
2019-03-21T12:12:53.897Z,39.57
2019-03-21T12:15:20.469Z,39.07
2019-03-21T12:17:46.912Z,36.40
2019-03-21T12:20:31.186Z,38.10
2019-03-21T12:22:57.726Z,39.93
2019-03-21T12:25:24.279Z,38.30
2019-03-21T12:27:51.019Z,34.93
2019-03-21T12:30:30.082Z,36.50
2019-03-21T12:32:57.447Z,34.63
2019-03-21T12:35:24.016Z,34.33
2019-03-21T12:37:50.752Z,35.17
2019-03-21T12:40:17.402Z,32.67
2019-03-21T12:42:43.971Z,36.63
2019-03-21T12:45:12.718Z,31.27
2019-03-21T12:47:39.293Z,27.93
2019-03-21T12:50:07.328Z,27.93
2019-03-21T12:52:41.349Z,27.50
2019-03-21T12:55:05.145Z,25.80
2019-03-21T12:57:31.828Z,28.47
2019-03-21T12:59:58.409Z,29.77
2019-03-21T13:02:32.328Z,30.00
2019-03-21T13:04:53.437Z,30.57
2019-03-21T13:07:20.452Z,34.07
2019-03-21T13:09:47.256Z,30.83
2019-03-21T13:12:13.933Z,31.90
2019-03-21T13:14:40.564Z,33.33
2019-03-21T13:17:07.129Z,35.00
2019-03-21T13:19:33.706Z,35.07
2019-03-21T13:22:00.275Z,32.67
2019-03-21T13:24:26.808Z,36.70
2019-03-21T13:26:53.381Z,38.00
2019-03-21T13:29:20.031Z,31.27
2019-03-21T13:31:46.610Z,34.47
2019-03-21T13:34:13.132Z,35.60
2019-03-21T13:36:39.777Z,37.50
2019-03-21T13:39:06.645Z,36.40
2019-03-21T13:41:33.274Z,36.07
2019-03-21T13:43:59.847Z,35.10
2019-03-21T13:46:26.481Z,34.13
2019-03-21T13:48:53.170Z,34.23
2019-03-21T13:51:19.721Z,33.13
2019-03-21T13:53:46.292Z,29.70
2019-03-21T13:56:12.940Z,32.73
2019-03-21T13:58:39.722Z,35.93
2019-03-21T14:01:06.531Z,34.00
2019-03-21T14:03:33.302Z,32.63
2019-03-21T14:06:00.440Z,35.57
2019-03-21T14:08:27.120Z,31.67
2019-03-21T14:10:54.752Z,31.40
2019-03-21T14:13:21.616Z,30.30
2019-03-21T14:15:48.248Z,31.07
2019-03-21T14:18:14.931Z,29.30
2019-03-21T14:20:41.567Z,30.10
2019-03-21T14:23:16.824Z,28.67
2019-03-21T14:25:36.696Z,28.63
2019-03-21T14:28:03.475Z,29.43
2019-03-21T14:30:30.039Z,25.90
2019-03-21T14:32:56.647Z,28.67
2019-03-21T14:35:23.226Z,28.00
2019-03-21T14:37:49.861Z,25.67
2019-03-21T14:40:16.629Z,27.63
2019-03-21T14:42:43.296Z,27.73
2019-03-21T14:45:13.350Z,26.80
2019-03-21T14:47:40.080Z,27.57
2019-03-21T14:50:09.754Z,27.73
2019-03-21T14:52:38.001Z,25.17
2019-03-21T14:55:06.786Z,25.93
2019-03-21T14:57:33.722Z,24.17
2019-03-21T15:00:00.482Z,23.63
2019-03-21T15:02:28.760Z,25.17
2019-03-21T15:04:55.567Z,23.70
2019-03-21T15:07:22.210Z,24.63
2019-03-21T15:09:48.796Z,24.07
2019-03-21T15:12:15.434Z,26.00
2019-03-21T15:14:41.993Z,26.50
2019-03-21T15:17:08.540Z,25.50
2019-03-21T15:19:35.317Z,24.10
2019-03-21T15:22:02.068Z,22.47
2019-03-21T15:24:28.632Z,22.80
2019-03-21T15:26:55.169Z,21.70
2019-03-21T15:29:21.765Z,23.80
2019-03-21T15:31:48.445Z,23.13
2019-03-21T15:34:15.030Z,22.43
2019-03-21T15:36:41.712Z,24.17
2019-03-21T15:39:08.256Z,22.77
2019-03-21T15:41:36.431Z,23.27
2019-03-21T15:44:03.272Z,21.80
2019-03-21T15:46:29.861Z,23.00
2019-03-21T15:48:56.510Z,25.20
2019-03-21T15:51:23.196Z,25.77
2019-03-21T15:53:56.246Z,24.00
2019-03-21T15:56:18.138Z,26.40
2019-03-21T15:58:44.833Z,27.37
2019-03-21T16:01:11.426Z,27.53
2019-03-21T16:03:38.118Z,26.20
2019-03-21T16:06:04.661Z,28.27
2019-03-21T16:08:31.372Z,28.40
2019-03-21T16:10:59.644Z,28.73
2019-03-21T16:13:26.331Z,30.30
2019-03-21T16:15:53.606Z,29.80
2019-03-21T16:18:20.137Z,31.50
2019-03-21T16:20:46.880Z,31.70
2019-03-21T16:23:13.685Z,34.33
2019-03-21T16:25:41.210Z,35.50
2019-03-21T16:28:07.868Z,37.30
2019-03-21T16:30:36.254Z,37.40
2019-03-21T16:33:04.248Z,35.80
2019-03-21T16:35:30.888Z,35.87
2019-03-21T16:37:57.534Z,35.20
2019-03-21T16:40:24.110Z,35.37
2019-03-21T16:42:50.786Z,33.70
2019-03-21T16:45:17.374Z,32.13
2019-03-21T16:47:44.148Z,32.23
2019-03-21T16:50:14.058Z,31.93
2019-03-21T16:52:40.640Z,31.67
2019-03-21T16:55:09.096Z,32.00
2019-03-21T16:57:35.720Z,32.10
2019-03-21T17:00:04.757Z,33.30
2019-03-21T17:02:31.420Z,29.40
2019-03-21T17:04:58.083Z,30.80
2019-03-21T17:07:24.620Z,30.30
2019-03-21T17:09:51.232Z,29.43
2019-03-21T17:12:17.924Z,28.67
2019-03-21T17:14:44.767Z,29.20
2019-03-21T17:17:11.363Z,29.27
2019-03-21T17:19:38.025Z,29.50
2019-03-21T17:22:04.564Z,29.10
2019-03-21T17:24:31.238Z,28.30
2019-03-21T17:26:58.385Z,27.87
2019-03-21T17:29:26.684Z,30.20
2019-03-21T17:31:53.446Z,30.80
2019-03-21T17:34:19.972Z,30.93
2019-03-21T17:36:46.418Z,31.90
2019-03-21T17:39:13.104Z,30.77
2019-03-21T17:41:39.861Z,29.63
2019-03-21T17:44:06.453Z,31.97
2019-03-21T17:46:32.988Z,30.20
2019-03-21T17:48:59.570Z,31.57
2019-03-21T17:51:26.255Z,31.00
2019-03-21T17:53:52.776Z,32.30
2019-03-21T17:56:19.357Z,35.67
2019-03-21T17:58:46.073Z,34.70
2019-03-21T18:01:12.720Z,32.67
2019-03-21T18:03:39.399Z,35.47
2019-03-21T18:06:06.096Z,34.07
2019-03-21T18:08:32.664Z,34.47
2019-03-21T18:10:59.358Z,34.17
2019-03-21T18:13:26.104Z,35.80
2019-03-21T18:15:52.692Z,37.67
2019-03-21T18:18:19.417Z,37.03
2019-03-21T18:20:46.073Z,35.47
2019-03-21T18:23:12.866Z,37.07
2019-03-21T18:25:41.236Z,34.47
2019-03-21T18:28:08.963Z,36.80
2019-03-21T18:30:35.869Z,35.80
2019-03-21T18:33:02.511Z,35.67
2019-03-21T18:35:29.100Z,30.50
2019-03-21T18:37:55.700Z,32.63
2019-03-21T18:40:22.356Z,31.23
2019-03-21T18:42:49.135Z,31.50
2019-03-21T18:45:15.821Z,30.30
2019-03-21T18:47:42.612Z,28.33
2019-03-21T18:50:11.893Z,28.57
2019-03-21T18:52:38.424Z,27.70
2019-03-21T18:55:07.133Z,27.53
2019-03-21T18:57:33.841Z,26.60
2019-03-21T19:00:00.524Z,26.40
2019-03-21T19:02:27.151Z,27.47
2019-03-21T19:04:53.722Z,31.50
2019-03-21T19:07:20.262Z,27.97
2019-03-21T19:09:47.270Z,26.70
2019-03-21T19:12:15.346Z,27.30
2019-03-21T19:14:41.908Z,27.77
2019-03-21T19:17:08.992Z,27.20
2019-03-21T19:19:35.635Z,27.00
2019-03-21T19:22:02.360Z,26.40
2019-03-21T19:24:29.555Z,25.37
2019-03-21T19:26:56.217Z,25.13
2019-03-21T19:29:23.554Z,27.47
2019-03-21T19:31:50.697Z,25.67
2019-03-21T19:34:17.439Z,23.73
2019-03-21T19:36:44.038Z,23.90
2019-03-21T19:39:11.023Z,24.97
2019-03-21T19:41:37.532Z,23.43
2019-03-21T19:44:04.094Z,24.70
2019-03-21T19:46:31.154Z,23.43
2019-03-21T19:48:57.913Z,23.67
2019-03-21T19:51:24.927Z,23.80
2019-03-21T19:53:51.578Z,24.17
2019-03-21T19:56:18.359Z,23.90
2019-03-21T19:58:45.159Z,23.63
2019-03-21T20:01:11.850Z,22.63
2019-03-21T20:03:38.629Z,21.17
2019-03-21T20:06:05.163Z,22.00
2019-03-21T20:08:31.742Z,20.57
2019-03-21T20:10:58.388Z,20.87
2019-03-21T20:13:25.076Z,20.60
2019-03-21T20:15:51.612Z,23.53
2019-03-21T20:18:18.203Z,24.20
2019-03-21T20:20:44.841Z,20.80
2019-03-21T20:23:11.580Z,19.70
2019-03-21T20:25:43.156Z,19.93
2019-03-21T20:28:06.645Z,20.37
2019-03-21T20:30:33.183Z,21.10
2019-03-21T20:32:59.797Z,21.30
2019-03-21T20:35:26.351Z,20.50
2019-03-21T20:37:52.934Z,20.80
2019-03-21T20:40:19.735Z,20.93
2019-03-21T20:42:46.493Z,20.53
2019-03-21T20:45:15.013Z,21.17
2019-03-21T20:47:41.897Z,22.60
2019-03-21T20:50:09.129Z,20.87
2019-03-21T20:52:35.823Z,21.80
2019-03-21T20:55:05.148Z,20.13
2019-03-21T20:57:31.821Z,22.03
2019-03-21T20:59:58.416Z,22.43
2019-03-21T21:02:25.103Z,21.57
2019-03-21T21:04:51.681Z,21.47
2019-03-21T21:07:18.279Z,22.10
2019-03-21T21:09:44.945Z,21.83
2019-03-21T21:12:11.638Z,21.80
2019-03-21T21:14:38.323Z,23.37
2019-03-21T21:17:05.118Z,23.20
2019-03-21T21:19:32.059Z,24.40
2019-03-21T21:21:58.749Z,22.47
2019-03-21T21:24:25.615Z,24.20
2019-03-21T21:26:52.307Z,23.70
2019-03-21T21:29:18.941Z,24.47
2019-03-21T21:31:45.521Z,23.73
2019-03-21T21:34:12.153Z,25.40
2019-03-21T21:36:38.945Z,25.50
2019-03-21T21:39:06.094Z,26.27
2019-03-21T21:41:32.733Z,25.67
2019-03-21T21:43:59.317Z,27.77
2019-03-21T21:46:26.019Z,27.27
2019-03-21T21:48:52.556Z,25.00
2019-03-21T21:51:19.141Z,25.10
2019-03-21T21:53:45.784Z,24.00
2019-03-21T21:56:17.617Z,26.43
2019-03-21T21:58:41.104Z,24.50
2019-03-21T22:01:07.794Z,25.03
2019-03-21T22:03:34.367Z,25.20
2019-03-21T22:06:01.055Z,24.37
2019-03-21T22:08:27.608Z,27.23
2019-03-21T22:10:54.229Z,25.90
2019-03-21T22:13:20.778Z,25.83
2019-03-21T22:15:47.448Z,24.90
2019-03-21T22:18:14.090Z,25.80
2019-03-21T22:20:40.681Z,25.50
2019-03-21T22:23:07.337Z,26.23
2019-03-21T22:25:34.478Z,27.03
2019-03-21T22:28:01.054Z,26.43
2019-03-21T22:30:27.883Z,24.47
2019-03-21T22:32:54.464Z,24.63
2019-03-21T22:35:21.149Z,25.30
2019-03-21T22:37:47.676Z,26.53
2019-03-21T22:40:16.254Z,26.47
2019-03-21T22:42:43.188Z,24.30
2019-03-21T22:45:11.766Z,24.27
2019-03-21T22:47:40.128Z,25.90
2019-03-21T22:50:10.013Z,26.23
2019-03-21T22:52:36.648Z,24.73
2019-03-21T22:55:04.968Z,25.47
2019-03-21T22:57:31.504Z,25.07
2019-03-21T22:59:59.907Z,25.07
2019-03-21T23:02:26.934Z,27.57
2019-03-21T23:04:55.176Z,24.67
2019-03-21T23:07:21.833Z,25.53
2019-03-21T23:09:50.114Z,25.30
2019-03-21T23:12:16.694Z,31.33
2019-03-21T23:14:43.266Z,24.50
2019-03-21T23:17:09.953Z,24.40
2019-03-21T23:19:36.387Z,25.43
2019-03-21T23:22:03.103Z,26.93
2019-03-21T23:24:29.648Z,25.97
2019-03-21T23:26:56.303Z,23.30
2019-03-21T23:29:22.852Z,24.87
2019-03-21T23:31:49.405Z,24.80
2019-03-21T23:34:16.098Z,25.77
2019-03-21T23:36:44.764Z,26.40
2019-03-21T23:39:11.109Z,25.20
2019-03-21T23:41:37.913Z,26.40
2019-03-21T23:44:04.508Z,25.00
2019-03-21T23:46:31.044Z,26.50
2019-03-21T23:48:57.568Z,26.07
2019-03-21T23:51:24.297Z,23.23
2019-03-21T23:53:50.751Z,25.90
2019-03-21T23:56:17.333Z,25.30
2019-03-21T23:58:43.970Z,25.53
